createdAt,value
2023-02-28T00:01:53.378Z,3.60
2023-02-28T00:04:21.256Z,3.27
2023-02-28T00:06:49.047Z,3.57
2023-02-28T00:09:16.913Z,3.10
2023-02-28T00:11:44.824Z,3.13
2023-02-28T00:14:12.688Z,3.47
2023-02-28T00:16:40.524Z,3.80
2023-02-28T00:19:08.568Z,3.30
2023-02-28T00:21:36.463Z,3.33
2023-02-28T00:24:04.427Z,3.77
2023-02-28T00:26:32.370Z,3.33
2023-02-28T00:29:00.283Z,3.27
2023-02-28T00:31:28.444Z,3.53
2023-02-28T00:33:56.510Z,3.50
2023-02-28T00:36:24.486Z,3.50
2023-02-28T00:38:52.398Z,3.13
2023-02-28T00:41:21.613Z,3.40
2023-02-28T00:43:49.431Z,3.13
2023-02-28T00:46:17.318Z,3.10
2023-02-28T00:48:45.576Z,3.70
2023-02-28T00:51:13.479Z,3.33
2023-02-28T00:53:41.244Z,3.10
2023-02-28T00:56:09.343Z,3.17
2023-02-28T00:58:37.181Z,3.10
2023-02-28T01:01:05.155Z,3.23
2023-02-28T01:03:33.176Z,3.50
2023-02-28T01:06:01.130Z,3.13
2023-02-28T01:08:28.980Z,3.17
2023-02-28T01:10:56.764Z,3.00
2023-02-28T01:13:25.445Z,3.30
2023-02-28T01:15:54.938Z,3.17
2023-02-28T01:18:23.184Z,2.87
2023-02-28T01:20:51.205Z,3.43
2023-02-28T01:23:19.148Z,3.17
2023-02-28T01:25:47.123Z,3.67
2023-02-28T01:28:15.036Z,3.10
2023-02-28T01:30:43.012Z,3.00
2023-02-28T01:33:10.918Z,3.37
2023-02-28T01:35:38.749Z,3.37
2023-02-28T01:38:20.872Z,3.57
2023-02-28T01:40:49.347Z,3.10
2023-02-28T01:43:31.319Z,3.50
2023-02-28T01:45:59.639Z,3.23
2023-02-28T01:48:35.080Z,3.27
2023-02-28T01:51:05.445Z,2.73
2023-02-28T01:53:39.705Z,3.00
2023-02-28T01:56:08.525Z,3.30
2023-02-28T01:58:36.674Z,3.23
2023-02-28T02:01:05.230Z,3.37
2023-02-28T02:03:33.180Z,2.90
2023-02-28T02:06:01.122Z,3.27
2023-02-28T02:08:29.268Z,3.00
2023-02-28T02:11:03.707Z,3.03
2023-02-28T02:13:57.684Z,3.10
2023-02-28T02:16:37.380Z,2.83
2023-02-28T02:19:21.146Z,2.80
2023-02-28T02:22:10.721Z,3.23
2023-02-28T02:24:49.619Z,3.07
2023-02-28T02:27:22.617Z,3.20
2023-02-28T02:30:02.576Z,3.00
2023-02-28T02:32:39.266Z,3.07
2023-02-28T02:35:22.258Z,3.33
2023-02-28T02:38:06.368Z,3.20
2023-02-28T02:40:40.555Z,3.37
2023-02-28T02:43:21.245Z,3.00
2023-02-28T02:45:54.660Z,2.60
2023-02-28T02:48:23.753Z,3.10
2023-02-28T02:50:54.129Z,2.70
2023-02-28T02:53:32.748Z,2.90
2023-02-28T02:56:00.622Z,2.80
2023-02-28T02:58:30.886Z,2.90
2023-02-28T03:01:01.394Z,2.37
2023-02-28T03:03:32.195Z,3.17
2023-02-28T03:06:01.534Z,3.17
2023-02-28T03:08:30.128Z,2.33
2023-02-28T03:11:02.351Z,2.93
2023-02-28T03:14:07.737Z,2.60
2023-02-28T03:16:52.488Z,2.80
2023-02-28T03:20:17.530Z,2.50
2023-02-28T03:22:53.202Z,2.63
2023-02-28T03:25:26.041Z,2.90
2023-02-28T03:28:17.763Z,3.03
2023-02-28T03:30:50.729Z,3.07
2023-02-28T03:33:21.417Z,2.87
2023-02-28T03:36:01.530Z,2.97
2023-02-28T03:38:51.426Z,2.93
2023-02-28T03:41:25.979Z,2.37
2023-02-28T03:43:57.409Z,2.57
2023-02-28T03:46:27.057Z,2.60
2023-02-28T03:48:54.891Z,3.07
2023-02-28T03:51:23.696Z,2.73
2023-02-28T03:54:04.235Z,2.73
2023-02-28T03:56:50.108Z,2.93
2023-02-28T03:59:41.193Z,2.67
2023-02-28T04:02:09.426Z,2.90
2023-02-28T04:04:37.421Z,2.80
2023-02-28T04:07:12.232Z,2.57
2023-02-28T04:09:40.036Z,2.90
2023-02-28T04:12:08.120Z,2.93
2023-02-28T04:14:35.922Z,3.17
2023-02-28T04:17:03.717Z,3.40
2023-02-28T04:19:31.537Z,2.80
2023-02-28T04:21:59.288Z,2.77
2023-02-28T04:24:28.751Z,3.50
2023-02-28T04:26:58.226Z,2.93
2023-02-28T04:29:28.385Z,3.27
2023-02-28T04:31:57.051Z,3.03
2023-02-28T04:34:25.813Z,3.17
2023-02-28T04:37:11.540Z,3.50
2023-02-28T04:39:40.477Z,3.00
2023-02-28T04:42:08.455Z,3.33
2023-02-28T04:44:36.396Z,3.30
2023-02-28T04:47:04.210Z,3.23
2023-02-28T04:49:32.236Z,3.60
2023-02-28T04:52:00.092Z,3.30
2023-02-28T04:54:27.986Z,3.43
2023-02-28T04:56:56.888Z,3.40
2023-02-28T04:59:24.706Z,3.40
2023-02-28T05:01:52.833Z,3.30
2023-02-28T05:04:20.695Z,3.53
2023-02-28T05:06:48.495Z,3.60
2023-02-28T05:09:16.499Z,3.30
2023-02-28T05:11:44.514Z,3.27
2023-02-28T05:14:14.438Z,4.00
2023-02-28T05:16:42.416Z,3.40
2023-02-28T05:19:10.503Z,3.40
2023-02-28T05:21:39.214Z,3.50
2023-02-28T05:24:08.887Z,3.67
2023-02-28T05:26:37.926Z,3.77
2023-02-28T05:29:05.800Z,4.00
2023-02-28T05:31:33.918Z,3.77
2023-02-28T05:34:01.872Z,3.20
2023-02-28T05:36:29.853Z,3.53
2023-02-28T05:38:57.848Z,3.17
2023-02-28T05:41:25.697Z,3.70
2023-02-28T05:43:53.816Z,3.60
2023-02-28T05:46:21.675Z,3.67
2023-02-28T05:48:50.176Z,3.17
2023-02-28T05:51:18.593Z,3.83
2023-02-28T05:53:46.511Z,3.63
2023-02-28T05:56:14.318Z,4.10
2023-02-28T05:58:42.230Z,3.83
2023-02-28T06:01:40.534Z,3.43
2023-02-28T06:04:19.216Z,3.67
2023-02-28T06:06:51.152Z,3.43
2023-02-28T06:09:19.558Z,3.13
2023-02-28T06:11:47.529Z,4.00
2023-02-28T06:14:17.976Z,3.40
2023-02-28T06:16:45.821Z,3.77
2023-02-28T06:19:13.786Z,3.87
2023-02-28T06:21:41.634Z,4.13
2023-02-28T06:24:09.587Z,4.23
2023-02-28T06:26:37.557Z,4.00
2023-02-28T06:29:05.430Z,3.60
2023-02-28T06:31:33.948Z,4.20
2023-02-28T06:34:02.196Z,4.10
2023-02-28T06:36:30.038Z,3.60
2023-02-28T06:38:58.262Z,4.03
2023-02-28T06:41:27.176Z,4.07
2023-02-28T06:43:55.482Z,3.90
2023-02-28T06:46:23.408Z,4.03
2023-02-28T06:48:51.418Z,4.17
2023-02-28T06:51:24.616Z,3.80
2023-02-28T06:53:53.184Z,4.00
2023-02-28T06:56:22.311Z,4.00
2023-02-28T06:58:51.184Z,4.10
2023-02-28T07:01:19.287Z,4.40
2023-02-28T07:03:47.451Z,4.20
2023-02-28T07:06:15.395Z,3.90
2023-02-28T07:08:43.340Z,4.23
2023-02-28T07:11:11.252Z,4.50
2023-02-28T07:13:39.249Z,4.17
2023-02-28T07:16:08.749Z,4.27
2023-02-28T07:18:37.070Z,4.23
2023-02-28T07:21:05.802Z,4.20
2023-02-28T07:23:33.731Z,4.10
2023-02-28T07:26:01.691Z,4.10
2023-02-28T07:28:29.701Z,4.53
2023-02-28T07:30:57.639Z,4.10
2023-02-28T07:33:26.136Z,5.40
2023-02-28T07:35:54.025Z,7.10
2023-02-28T07:38:21.880Z,4.97
2023-02-28T07:40:50.125Z,3.93
2023-02-28T07:43:17.992Z,4.30
2023-02-28T07:45:45.843Z,4.17
2023-02-28T07:48:13.764Z,4.20
2023-02-28T07:50:41.636Z,4.90
2023-02-28T07:53:09.558Z,4.17
2023-02-28T07:55:37.451Z,4.87
2023-02-28T07:58:05.416Z,4.50
2023-02-28T08:00:34.293Z,4.47
2023-02-28T08:03:02.221Z,4.53
2023-02-28T08:05:30.165Z,4.07
2023-02-28T08:07:58.033Z,5.00
2023-02-28T08:10:26.596Z,4.80
2023-02-28T08:12:54.508Z,4.87
2023-02-28T08:15:22.468Z,4.40
2023-02-28T08:17:50.388Z,4.63
2023-02-28T08:20:18.271Z,4.37
2023-02-28T08:22:46.493Z,4.77
2023-02-28T08:25:14.370Z,4.93
2023-02-28T08:27:42.508Z,4.57
2023-02-28T08:30:15.507Z,4.80
2023-02-28T08:32:43.400Z,5.00
2023-02-28T08:35:11.590Z,4.90
2023-02-28T08:37:39.576Z,4.60
2023-02-28T08:40:08.507Z,5.00
2023-02-28T08:42:36.780Z,4.67
2023-02-28T08:45:05.409Z,4.77
2023-02-28T08:47:34.015Z,5.00
2023-02-28T08:50:02.222Z,5.50
2023-02-28T08:52:30.420Z,5.00
2023-02-28T08:54:58.582Z,5.43
2023-02-28T08:57:28.499Z,4.47
2023-02-28T08:59:56.748Z,5.10
2023-02-28T09:02:24.835Z,4.70
2023-02-28T09:04:53.127Z,5.00
2023-02-28T09:07:27.246Z,4.97
2023-02-28T09:09:58.242Z,4.40
2023-02-28T09:12:27.183Z,4.53
2023-02-28T09:14:55.548Z,4.93
2023-02-28T09:17:23.972Z,4.97
2023-02-28T09:19:54.764Z,4.70
2023-02-28T09:22:23.716Z,4.97
2023-02-28T09:24:51.942Z,5.10
2023-02-28T09:27:20.177Z,5.03
2023-02-28T09:29:49.205Z,4.67
2023-02-28T09:32:17.732Z,5.03
2023-02-28T09:34:45.913Z,4.60
2023-02-28T09:37:14.225Z,4.80
2023-02-28T09:39:42.278Z,4.67
2023-02-28T09:42:17.046Z,5.27
2023-02-28T09:44:46.335Z,4.40
2023-02-28T09:47:35.483Z,5.20
2023-02-28T09:50:36.237Z,4.93
2023-02-28T09:53:06.441Z,5.33
2023-02-28T09:55:46.409Z,5.33
2023-02-28T09:58:43.666Z,5.37
2023-02-28T10:01:13.523Z,4.83
2023-02-28T10:03:43.353Z,5.17
2023-02-28T10:06:20.568Z,5.20
2023-02-28T10:09:15.832Z,5.27
2023-02-28T10:11:45.104Z,5.00
2023-02-28T10:14:27.029Z,5.27
2023-02-28T10:17:07.964Z,5.60
2023-02-28T10:19:42.419Z,4.70
2023-02-28T10:22:28.543Z,5.37
2023-02-28T10:24:58.898Z,6.63
2023-02-28T10:27:32.753Z,5.40
2023-02-28T10:30:02.694Z,5.37
2023-02-28T10:32:37.699Z,5.97
2023-02-28T10:35:12.987Z,5.70
2023-02-28T10:37:45.175Z,5.87
2023-02-28T10:40:22.558Z,5.17
2023-02-28T10:43:07.460Z,5.20
2023-02-28T10:45:37.491Z,5.50
2023-02-28T10:48:17.780Z,5.27
2023-02-28T10:50:54.444Z,5.37
2023-02-28T10:53:28.203Z,5.33
2023-02-28T10:56:03.711Z,5.43
2023-02-28T10:58:53.512Z,5.57
2023-02-28T11:01:40.823Z,5.30
2023-02-28T11:04:43.218Z,5.20
2023-02-28T11:07:24.592Z,5.33
2023-02-28T11:09:55.257Z,5.00
2023-02-28T11:12:24.604Z,4.73
2023-02-28T11:14:58.334Z,5.60
2023-02-28T11:17:30.890Z,5.50
2023-02-28T11:20:01.080Z,5.20
2023-02-28T11:22:33.572Z,5.90
2023-02-28T11:25:03.868Z,5.60
2023-02-28T11:27:36.212Z,5.80
2023-02-28T11:30:04.326Z,5.73
2023-02-28T11:32:32.754Z,5.60
2023-02-28T11:35:16.473Z,6.00
2023-02-28T11:37:44.717Z,5.03
2023-02-28T11:40:17.211Z,5.20
2023-02-28T11:42:54.310Z,6.00
2023-02-28T11:45:45.204Z,6.23
2023-02-28T11:48:39.565Z,5.73
2023-02-28T11:51:27.281Z,6.60
2023-02-28T11:54:11.158Z,6.23
2023-02-28T11:56:46.646Z,6.47
2023-02-28T11:59:36.449Z,6.27
2023-02-28T12:02:25.300Z,6.07
2023-02-28T12:04:53.390Z,5.93
2023-02-28T12:07:41.896Z,6.60
2023-02-28T12:10:34.144Z,6.87
2023-02-28T12:13:25.978Z,6.80
2023-02-28T12:16:10.413Z,6.63
2023-02-28T12:18:48.356Z,7.07
2023-02-28T12:21:42.924Z,6.80
2023-02-28T12:24:21.289Z,7.40
2023-02-28T12:26:50.529Z,6.70
2023-02-28T12:29:24.036Z,7.03
2023-02-28T12:31:53.205Z,6.70
2023-02-28T12:34:27.892Z,7.23
2023-02-28T12:36:56.463Z,6.37
2023-02-28T12:39:49.536Z,6.47
2023-02-28T12:42:30.868Z,6.33
2023-02-28T12:45:04.145Z,6.73
2023-02-28T12:47:32.638Z,6.27
2023-02-28T12:50:13.870Z,7.10
2023-02-28T12:53:00.512Z,6.50
2023-02-28T12:55:38.299Z,7.23
2023-02-28T12:58:29.558Z,7.10
2023-02-28T13:01:31.978Z,6.07
2023-02-28T13:04:06.162Z,7.13
2023-02-28T13:07:11.683Z,7.00
2023-02-28T13:09:40.872Z,7.97
2023-02-28T13:12:19.238Z,7.87
2023-02-28T13:14:47.411Z,7.23
2023-02-28T13:17:20.142Z,7.50
2023-02-28T13:19:54.303Z,6.90
2023-02-28T13:22:28.229Z,7.07
2023-02-28T13:24:59.317Z,7.43
2023-02-28T13:27:45.034Z,7.30
2023-02-28T13:30:50.747Z,7.50
2023-02-28T13:33:34.295Z,8.17
2023-02-28T13:36:15.819Z,8.00
2023-02-28T13:38:51.333Z,7.60
2023-02-28T13:41:31.755Z,7.13
2023-02-28T13:44:12.689Z,7.43
2023-02-28T13:46:50.123Z,7.60
2023-02-28T13:49:22.291Z,7.43
2023-02-28T13:51:54.075Z,6.90
2023-02-28T13:54:40.510Z,7.70
2023-02-28T13:57:50.228Z,7.40
2023-02-28T14:00:40.287Z,7.70
2023-02-28T14:03:29.539Z,9.70
2023-02-28T14:06:34.768Z,9.30
2023-02-28T14:09:19.483Z,7.73
2023-02-28T14:11:48.292Z,8.17
2023-02-28T14:14:38.325Z,8.40
2023-02-28T14:17:16.795Z,7.97
2023-02-28T14:19:48.955Z,7.83
2023-02-28T14:22:38.857Z,8.10
2023-02-28T14:25:21.710Z,8.23
2023-02-28T14:28:02.776Z,8.07
2023-02-28T14:31:10.380Z,8.53
2023-02-28T14:34:17.427Z,9.50
2023-02-28T14:36:46.288Z,9.00
2023-02-28T14:39:28.604Z,7.90
2023-02-28T14:41:56.944Z,8.77
2023-02-28T15:01:26.785Z,8.20
2023-02-28T15:04:03.525Z,8.43
2023-02-28T15:10:29.827Z,8.63
2023-02-28T15:13:01.165Z,8.50
2023-02-28T15:16:04.365Z,8.73
2023-02-28T15:18:55.170Z,8.53
2023-02-28T15:21:27.878Z,8.40
2023-02-28T15:23:58.211Z,8.10
2023-02-28T15:26:29.307Z,8.23
2023-02-28T15:29:01.591Z,8.73
2023-02-28T15:35:02.138Z,8.80
2023-02-28T15:37:40.236Z,8.80
2023-02-28T15:40:08.354Z,15.50
2023-02-28T15:46:17.894Z,8.80
2023-02-28T15:52:45.502Z,9.10
2023-02-28T15:55:14.862Z,8.17
2023-02-28T15:57:42.959Z,9.17
2023-02-28T16:00:15.229Z,9.50
